Time;durP1;ratioP1;P1;durP2;ratioP2;P2;SDS_P1;SDS_P2;PMS_P1;PMS_P2;Temp;Humidity;BMP_temperature;BMP_pressure;BME280_temperature;BME280_humidity;BME280_pressure;Samples;Min_cycle;Max_cycle;Signal;HPM_P1;HPM_P2
2021/06/27 00:00:46;;;;;;;12.38;7.54;;;;;;;22.61;69.43;98723.97;374404;108;2072000;-75
2021/06/27 00:01:52;;;;;;;11.98;7.39;;;;;;;22.53;69.58;98730.20;352081;113;1962053;-73
2021/06/27 00:03:06;;;;;;;13.86;8.19;;;;;;;22.65;69.38;98715.90;386089;106;1986044;-74
2021/06/27 00:04:14;;;;;;;9.62;7.01;;;;;;;22.52;69.21;98717.55;308611;109;2248963;-73
2021/06/27 00:05:39;;;;;;;10.09;7.53;;;;;;;22.43;68.85;98716.66;332913;111;1965017;-73
2021/06/27 00:06:46;;;;;;;12.45;8.81;;;;;;;22.29;68.97;98725.73;357979;112;1962058;-74
2021/06/27 00:08:00;;;;;;;12.24;9.01;;;;;;;22.27;69.93;98713.41;396471;104;1986836;-75
2021/06/27 00:09:06;;;;;;;13.59;9.42;;;;;;;22.05;70.33;98712.16;371781;107;1962892;-74
2021/06/27 00:10:25;;;;;;;13.06;9.24;;;;;;;22.08;70.41;98708.78;337384;104;2327935;-73
2021/06/27 00:11:31;;;;;;;11.35;8.25;;;;;;;21.92;70.55;98704.71;380443;105;1962968;-72
2021/06/27 00:12:55;;;;;;;13.57;8.02;;;;;;;21.86;70.71;98714.19;332087;105;2261031;-72
2021/06/27 00:14:01;;;;;;;12.86;7.56;;;;;;;21.81;71.17;98709.59;372351;105;1961995;-73
2021/06/27 00:15:36;;;;;;;12.17;8.08;;;;;;;21.91;71.75;98717.65;416468;99;1985993;-73
2021/06/27 00:16:52;;;;;;;11.96;7.83;;;;;;;21.92;71.79;98718.45;396445;104;1986024;-73
2021/06/27 00:17:59;;;;;;;10.14;7.12;;;;;;;21.78;71.96;98723.94;374541;107;1962792;-73
2021/06/27 00:19:05;;;;;;;11.99;6.82;;;;;;;21.75;72.08;98716.28;377010;106;1962048;-73
2021/06/27 00:20:15;;;;;;;12.97;7.04;;;;;;;21.74;72.07;98711.91;376891;106;1961882;-74
2021/06/27 00:21:27;;;;;;;10.02;6.56;;;;;;;21.89;71.81;98708.08;378187;108;1985995;-72
2021/06/27 00:22:33;;;;;;;10.46;6.54;;;;;;;21.80;71.74;98704.38;359148;112;1961956;-74
2021/06/27 00:23:48;;;;;;;11.04;7.01;;;;;;;21.93;71.95;98714.58;342091;106;2775965;-75
2021/06/27 00:24:53;;;;;;;12.73;6.82;;;;;;;21.85;71.71;98718.03;368310;109;1969050;-75
2021/06/27 00:26:20;;;;;;;10.84;6.63;;;;;;;21.86;71.61;98733.43;320687;109;2761855;-74
2021/06/27 00:27:26;;;;;;;10.17;6.74;;;;;;;21.85;71.54;98721.59;365628;109;1961942;-75
2021/06/27 00:28:31;;;;;;;10.18;6.76;;;;;;;21.87;71.30;98726.80;369860;109;1963944;-75
2021/06/27 00:29:44;;;;;;;10.91;6.73;;;;;;;22.04;71.08;98726.20;348776;106;2760984;-74
2021/06/27 00:30:52;;;;;;;10.13;7.03;;;;;;;21.98;70.90;98719.17;364985;107;1961963;-76
2021/06/27 00:32:11;;;;;;;10.27;6.77;;;;;;;22.14;70.55;98724.06;396466;104;1995921;-74
2021/06/27 00:33:17;;;;;;;12.04;7.15;;;;;;;22.07;70.51;98725.58;372548;105;1962013;-75
2021/06/27 00:34:41;;;;;;;8.97;5.88;;;;;;;22.11;70.37;98732.92;375573;106;1962006;-75
2021/06/27 00:35:47;;;;;;;10.70;6.81;;;;;;;22.18;70.17;98735.28;375338;106;1962022;-75
2021/06/27 00:36:59;;;;;;;10.93;6.26;;;;;;;22.32;69.89;98725.11;392810;103;1972975;-73
2021/06/27 00:39:11;;;;;;;10.26;6.63;;;;;;;22.40;69.47;98720.83;388485;104;1983051;-72
2021/06/27 00:40:19;;;;;;;10.71;6.76;;;;;;;22.32;68.87;98714.11;369822;107;1961914;-70
2021/06/27 00:41:31;;;;;;;9.07;6.29;;;;;;;22.43;68.56;98705.64;394308;104;1988050;-72
2021/06/27 00:42:37;;;;;;;12.68;7.39;;;;;;;22.28;68.48;98715.02;374759;106;1962051;-71
2021/06/27 00:43:43;;;;;;;9.39;7.26;;;;;;;22.23;68.84;98713.22;375085;106;1961957;-72
2021/06/27 00:44:55;;;;;;;12.09;7.92;;;;;;;22.38;68.86;98710.12;392011;104;2071026;-73
2021/06/27 00:46:01;;;;;;;11.12;8.24;;;;;;;22.28;68.57;98713.11;375032;105;1969995;-73
2021/06/27 00:47:28;;;;;;;11.53;8.56;;;;;;;22.35;68.75;98712.68;382323;108;2071996;-73
2021/06/27 00:48:34;;;;;;;9.97;8.16;;;;;;;22.17;68.66;98709.72;360925;109;1962981;-73
2021/06/27 00:49:58;;;;;;;10.17;7.87;;;;;;;22.04;69.22;98707.75;317463;113;2758958;-74
2021/06/27 00:51:10;;;;;;;12.61;8.51;;;;;;;22.03;69.55;98716.33;393048;104;1963872;-75
2021/06/27 00:52:15;;;;;;;11.13;8.02;;;;;;;21.90;69.58;98710.50;373939;107;1968889;-74
2021/06/27 00:53:28;;;;;;;10.90;8.14;;;;;;;21.96;69.71;98708.47;393187;104;1985868;-74
2021/06/27 00:54:34;;;;;;;12.84;8.74;;;;;;;21.79;69.95;98698.07;370597;107;1961029;-74
2021/06/27 00:55:57;;;;;;;10.76;8.16;;;;;;;21.76;69.77;98703.38;370659;107;1964941;-74
2021/06/27 00:57:09;;;;;;;13.04;8.20;;;;;;;21.84;70.20;98699.92;395032;104;1986934;-71
2021/06/27 00:58:15;;;;;;;10.52;7.76;;;;;;;21.78;70.17;98699.20;374496;107;1961983;-74
2021/06/27 00:59:22;;;;;;;11.44;7.08;;;;;;;21.85;70.06;98691.35;364799;108;1963798;-71
2021/06/27 01:00:40;;;;;;;12.48;7.09;;;;;;;22.07;69.83;98685.17;394867;104;1985998;-74
2021/06/27 01:01:53;;;;;;;11.26;7.05;;;;;;;22.26;69.53;98689.78;336035;106;2611976;-74
2021/06/27 01:02:59;;;;;;;9.46;6.37;;;;;;;22.28;69.18;98696.60;344242;107;1964075;-74
2021/06/27 01:04:12;;;;;;;12.34;7.46;;;;;;;22.54;68.56;98688.59;390527;103;1967007;-73
2021/06/27 01:05:20;;;;;;;11.49;7.01;;;;;;;22.51;68.13;98694.72;370657;107;1962010;-73
2021/06/27 01:06:44;;;;;;;10.39;7.23;;;;;;;22.57;67.67;98699.02;355117;109;2962761;-74
2021/06/27 01:07:49;;;;;;;11.93;7.61;;;;;;;22.59;67.41;98702.25;361429;110;1965856;-73
2021/06/27 01:09:03;;;;;;;9.51;7.14;;;;;;;22.70;67.39;98702.83;384874;106;2072043;-72
2021/06/27 01:10:10;;;;;;;10.24;7.81;;;;;;;22.57;67.38;98712.77;370247;107;1962107;-72
2021/06/27 01:11:22;;;;;;;11.37;7.54;;;;;;;22.66;67.47;98714.80;391286;104;1972913;-72
2021/06/27 01:12:27;;;;;;;11.56;8.02;;;;;;;22.54;67.38;98720.81;374884;107;1962076;-71
2021/06/27 01:13:51;;;;;;;11.35;8.10;;;;;;;22.51;67.36;98722.24;374840;105;1961883;-72
2021/06/27 01:15:05;;;;;;;11.80;8.10;;;;;;;22.57;67.41;98737.55;389067;103;2071071;-72
2021/06/27 01:16:11;;;;;;;10.79;7.96;;;;;;;22.42;67.53;98743.36;379938;105;1970000;-73
2021/06/27 01:17:16;;;;;;;12.21;7.96;;;;;;;22.37;67.74;98743.47;380662;105;1961993;-73
2021/06/27 01:18:22;;;;;;;11.56;8.11;;;;;;;22.33;67.82;98747.94;379537;105;1962836;-73
2021/06/27 01:19:34;;;;;;;11.41;8.03;;;;;;;22.41;67.87;98755.47;393108;104;2073890;-73
2021/06/27 01:20:40;;;;;;;12.46;7.87;;;;;;;22.28;67.90;98748.03;376029;105;1961932;-74
2021/06/27 01:21:53;;;;;;;12.04;8.08;;;;;;;22.33;68.05;98747.94;383442;106;1987982;-74
2021/06/27 01:23:01;;;;;;;10.82;7.72;;;;;;;22.14;68.21;98750.75;365569;109;1961952;-73
2021/06/27 01:24:07;;;;;;;12.95;8.46;;;;;;;22.12;68.49;98744.73;356445;112;1961859;-74
2021/06/27 01:25:25;;;;;;;13.48;8.73;;;;;;;22.20;68.65;98749.56;371689;109;1962066;-73
2021/06/27 01:26:31;;;;;;;11.58;8.16;;;;;;;22.07;68.58;98750.33;299730;111;2249024;-74
2021/06/27 01:27:37;;;;;;;10.79;7.67;;;;;;;22.07;68.76;98748.42;320841;111;2065015;-75
2021/06/27 01:28:43;;;;;;;12.14;8.39;;;;;;;22.08;68.75;98763.80;355976;113;1961920;-75
2021/06/27 01:29:58;;;;;;;12.14;7.59;;;;;;;22.20;68.75;98757.00;333572;106;2259055;-74
2021/06/27 01:31:05;;;;;;;11.37;7.62;;;;;;;22.08;68.72;98763.80;366382;110;1961858;-76
2021/06/27 01:32:12;;;;;;;10.56;7.81;;;;;;;22.07;68.67;98755.83;363998;110;1962919;-76
2021/06/27 01:33:24;;;;;;;13.94;8.18;;;;;;;22.20;68.69;98757.81;387734;106;1985979;-74
2021/06/27 01:34:29;;;;;;;11.31;8.12;;;;;;;22.07;68.66;98753.92;363621;108;1961990;-75
2021/06/27 01:35:42;;;;;;;11.13;7.74;;;;;;;22.16;68.67;98751.27;387996;104;2072952;-75
2021/06/27 01:36:48;;;;;;;11.33;7.80;;;;;;;22.04;68.76;98756.45;367810;107;2863033;-75
2021/06/27 01:38:02;;;;;;;12.63;8.09;;;;;;;22.13;68.81;98754.64;391102;104;2072032;-74
2021/06/27 01:39:08;;;;;;;9.65;6.93;;;;;;;21.98;68.87;98757.67;376939;106;1961073;-76
2021/06/27 01:40:33;;;;;;;10.97;7.77;;;;;;;22.00;68.89;98748.00;378091;106;1960967;-74
2021/06/27 01:41:50;;;;;;;10.85;7.94;;;;;;;22.11;68.85;98743.13;385625;104;2968795;-73
2021/06/27 01:43:08;;;;;;;10.07;7.44;;;;;;;22.00;68.81;98737.00;377972;106;1961022;-74
2021/06/27 01:44:13;;;;;;;11.29;7.75;;;;;;;21.99;68.77;98738.13;366326;109;1962021;-74
2021/06/27 01:45:24;;;;;;;16.42;8.13;;;;;;;22.01;68.70;98743.31;366247;109;1962080;-74
2021/06/27 01:46:37;;;;;;;12.60;7.61;;;;;;;22.12;68.70;98742.83;361745;104;2867971;-74
2021/06/27 01:47:43;;;;;;;11.31;7.23;;;;;;;22.00;68.61;98742.50;351340;107;1961932;-75
2021/06/27 01:48:49;;;;;;;10.44;7.83;;;;;;;22.00;68.58;98737.00;365786;107;1964782;-74
2021/06/27 01:50:01;;;;;;;11.57;7.82;;;;;;;22.14;68.54;98748.81;398223;103;1986992;-75
2021/06/27 01:51:07;;;;;;;11.76;7.57;;;;;;;22.01;68.50;98727.62;378836;105;1962898;-75
2021/06/27 01:52:38;;;;;;;10.94;7.88;;;;;;;22.13;68.49;98725.19;390532;103;2918986;-76
2021/06/27 01:53:45;;;;;;;13.16;7.64;;;;;;;22.02;68.47;98733.95;342057;105;2883013;-75
2021/06/27 01:55:09;;;;;;;11.93;7.96;;;;;;;22.00;68.54;98736.19;375712;105;1962044;-74
2021/06/27 01:56:21;;;;;;;14.71;7.96;;;;;;;22.08;68.46;98735.48;396167;103;1962035;-74
2021/06/27 01:57:27;;;;;;;13.44;8.15;;;;;;;21.95;68.60;98746.16;375671;105;1968854;-72
2021/06/27 01:58:41;;;;;;;12.92;7.96;;;;;;;21.96;68.68;98746.96;377813;105;1961997;-74
2021/06/27 01:59:54;;;;;;;10.87;8.13;;;;;;;22.04;68.78;98750.95;399023;104;1986027;-73
2021/06/27 02:01:00;;;;;;;12.91;8.32;;;;;;;21.94;68.79;98751.97;382314;105;1962022;-74
2021/06/27 02:02:12;;;;;;;11.92;8.46;;;;;;;22.07;68.80;98753.08;335078;106;2425026;-73
2021/06/27 02:03:18;;;;;;;13.13;7.73;;;;;;;21.97;68.79;98767.05;365108;109;1964026;-73
2021/06/27 02:04:42;;;;;;;13.58;7.85;;;;;;;21.97;68.86;98756.86;364167;110;1962089;-73
2021/06/27 02:05:54;;;;;;;13.48;8.84;;;;;;;22.09;68.88;98754.41;389264;104;2071975;-72
2021/06/27 02:07:00;;;;;;;11.44;8.38;;;;;;;21.99;68.76;98759.29;375097;107;1962054;-72
2021/06/27 02:08:13;;;;;;;13.45;9.09;;;;;;;22.10;68.78;98767.06;390777;104;2080941;-73
2021/06/27 02:09:18;;;;;;;12.05;7.59;;;;;;;22.01;68.76;98766.12;359745;108;2846985;-72
2021/06/27 02:10:30;;;;;;;13.88;8.39;;;;;;;22.13;68.78;98763.70;394639;104;1986869;-72
2021/06/27 02:11:38;;;;;;;12.37;7.82;;;;;;;22.04;68.77;98772.95;374278;107;1961833;-72
2021/06/27 02:13:03;;;;;;;11.07;7.59;;;;;;;22.02;68.68;98765.02;374499;107;1964025;-73
2021/06/27 02:14:10;;;;;;;13.58;8.22;;;;;;;22.04;68.71;98762.76;370209;107;1962042;-73
2021/06/27 02:15:23;;;;;;;13.97;8.49;;;;;;;22.16;68.67;98754.02;390072;106;1973036;-73
2021/06/27 02:16:32;;;;;;;11.33;8.12;;;;;;;22.06;68.59;98754.22;373897;106;1961981;-73
2021/06/27 02:17:38;;;;;;;14.23;8.33;;;;;;;22.06;68.56;98752.27;358346;106;1961931;-72
2021/06/27 02:18:49;;;;;;;11.21;8.08;;;;;;;22.07;68.54;98756.67;371856;106;1962085;-74
2021/06/27 02:19:56;;;;;;;9.91;7.38;;;;;;;22.07;68.56;98753.92;370832;107;1961977;-74
2021/06/27 02:21:12;;;;;;;10.81;7.48;;;;;;;22.21;68.46;98751.20;390808;104;1987986;-73
2021/06/27 02:22:17;;;;;;;12.59;7.42;;;;;;;22.10;68.38;98758.00;374082;106;1963033;-72
2021/06/27 02:23:23;;;;;;;14.23;8.19;;;;;;;22.14;68.35;98757.06;364888;106;2894025;-72
2021/06/27 02:24:35;;;;;;;11.78;7.49;;;;;;;22.26;68.29;98762.11;396407;104;1962015;-73
2021/06/27 02:25:40;;;;;;;11.50;8.21;;;;;;;22.16;68.23;98757.59;378889;105;1970888;-72
2021/06/27 02:26:53;;;;;;;14.84;9.06;;;;;;;22.31;68.23;98752.95;390263;104;2077904;-74
2021/06/27 02:27:59;;;;;;;13.74;8.04;;;;;;;22.23;68.10;98764.64;376531;107;1962024;-74
2021/06/27 02:29:22;;;;;;;10.31;7.70;;;;;;;22.24;67.99;98764.34;361673;109;1964017;-73
2021/06/27 02:30:36;;;;;;;11.56;7.15;;;;;;;22.35;67.73;98773.22;358181;104;2873028;-72
2021/06/27 02:31:51;;;;;;;13.02;8.31;;;;;;;22.35;67.70;98774.02;390520;106;1962967;-72
2021/06/27 02:33:16;;;;;;;12.53;8.87;;;;;;;22.26;67.71;98775.06;371099;107;1970012;-74
2021/06/27 02:34:27;;;;;;;15.92;9.21;;;;;;;22.32;67.85;98780.14;393540;104;1972921;-72
2021/06/27 02:35:33;;;;;;;11.18;8.94;;;;;;;22.21;67.91;98786.16;374516;107;1964068;-71
2021/06/27 02:36:57;;;;;;;12.17;9.39;;;;;;;22.15;68.13;98782.66;365741;105;2923029;-72
2021/06/27 02:38:04;;;;;;;12.81;8.53;;;;;;;22.14;68.21;98778.27;326955;107;2126969;-72
2021/06/27 02:39:16;;;;;;;14.95;10.08;;;;;;;22.23;68.38;98781.98;380894;106;1965022;-73
2021/06/27 02:40:22;;;;;;;12.42;9.92;;;;;;;22.10;68.57;98783.56;361533;111;1962050;-74
2021/06/27 02:41:36;;;;;;;15.20;10.49;;;;;;;22.19;68.73;98791.14;389053;104;2072024;-73
2021/06/27 02:42:41;;;;;;;11.90;9.48;;;;;;;22.01;68.69;98799.12;376715;106;1963026;-72
2021/06/27 02:43:53;;;;;;;15.39;10.46;;;;;;;22.06;68.95;98795.47;389124;104;2071068;-73
2021/06/27 02:44:59;;;;;;;13.36;10.11;;;;;;;21.91;69.08;98800.13;370987;108;1969004;-72
2021/06/27 02:46:22;;;;;;;14.42;10.31;;;;;;;21.85;69.28;98798.57;370150;108;1962650;-72
2021/06/27 02:47:28;;;;;;;13.89;9.41;;;;;;;21.77;69.45;98792.95;371006;108;1962097;-72
2021/06/27 02:48:40;;;;;;;13.77;10.89;;;;;;;21.87;69.80;98792.78;393398;104;1986039;-73
2021/06/27 02:49:45;;;;;;;12.44;10.42;;;;;;;21.76;69.84;98800.39;369848;108;1964963;-71
2021/06/27 02:50:57;;;;;;;13.36;10.67;;;;;;;21.82;69.82;98801.93;388350;104;2073008;-73
2021/06/27 02:52:03;;;;;;;12.57;10.03;;;;;;;21.68;70.02;98801.89;358374;105;1968983;-73
2021/06/27 02:53:27;;;;;;;14.16;9.76;;;;;;;21.69;70.17;98806.27;374736;106;1962029;-72
2021/06/27 02:54:39;;;;;;;12.19;8.93;;;;;;;21.78;70.19;98795.42;388272;104;2072047;-73
2021/06/27 02:55:45;;;;;;;10.88;8.71;;;;;;;21.68;70.43;98799.14;348554;107;2027901;-74
2021/06/27 02:57:00;;;;;;;12.89;8.33;;;;;;;21.88;70.45;98797.16;377484;108;1986022;-74
2021/06/27 02:58:05;;;;;;;9.69;7.49;;;;;;;21.81;70.10;98800.31;346194;112;1964873;-73
2021/06/27 02:59:30;;;;;;;12.58;7.47;;;;;;;21.88;70.19;98800.71;352703;112;1961990;-74
2021/06/27 03:00:42;;;;;;;11.31;8.17;;;;;;;22.08;69.54;98805.05;380004;104;2072978;-72
2021/06/27 03:01:47;;;;;;;13.77;8.49;;;;;;;22.03;69.34;98801.58;349887;105;1962080;-72
2021/06/27 03:02:52;;;;;;;12.86;7.64;;;;;;;22.12;69.26;98803.34;347524;105;1962007;-72
2021/06/27 03:03:57;;;;;;;9.84;7.96;;;;;;;22.21;68.87;98803.47;345544;106;2012004;-74
2021/06/27 03:05:11;;;;;;;11.04;8.12;;;;;;;22.41;68.23;98796.75;393338;104;1986043;-69
2021/06/27 03:06:18;;;;;;;11.69;8.88;;;;;;;22.35;68.15;98801.54;366599;107;2878904;-73
2021/06/27 03:07:24;;;;;;;10.57;8.33;;;;;;;22.41;67.61;98798.69;313121;107;2284012;-73
2021/06/27 03:08:36;;;;;;;13.16;9.58;;;;;;;22.48;67.33;98802.67;387700;104;2076101;-73
2021/06/27 03:09:42;;;;;;;11.50;8.74;;;;;;;22.36;67.09;98802.34;369478;107;1963999;-72
2021/06/27 03:10:54;;;;;;;13.58;8.92;;;;;;;22.42;67.21;98806.66;389479;103;2913928;-72
2021/06/27 03:11:59;;;;;;;10.99;8.81;;;;;;;22.29;67.31;98815.71;370612;105;2947998;-71
2021/06/27 03:13:22;;;;;;;12.51;9.14;;;;;;;22.26;67.38;98811.63;379180;105;1962036;-72
2021/06/27 03:14:27;;;;;;;14.44;9.04;;;;;;;22.34;67.33;98813.67;374689;105;1962041;-71
2021/06/27 03:15:40;;;;;;;12.22;9.32;;;;;;;22.52;67.19;98809.21;401459;101;1987960;-72
2021/06/27 03:16:46;;;;;;;11.41;8.61;;;;;;;22.48;66.99;98816.43;381565;105;1961884;-72
2021/06/27 03:17:51;;;;;;;13.17;8.79;;;;;;;22.54;66.79;98806.13;384335;103;1961971;-73
2021/06/27 03:19:03;;;;;;;11.92;8.28;;;;;;;22.74;66.53;98810.42;386644;104;2071018;-73
2021/06/27 03:20:11;;;;;;;9.42;6.56;;;;;;;22.69;66.15;98807.77;365281;107;1968888;-74
2021/06/27 03:21:17;;;;;;;12.48;6.47;;;;;;;22.74;65.39;98804.92;367385;107;1961033;-73
2021/06/27 03:22:23;;;;;;;10.11;6.15;;;;;;;22.78;65.08;98806.75;359324;107;2919011;-73
2021/06/27 03:23:35;;;;;;;11.78;6.67;;;;;;;22.94;64.83;98812.75;394583;103;2070952;-72
2021/06/27 03:24:40;;;;;;;9.43;6.31;;;;;;;22.88;64.56;98815.91;369524;107;1972036;-71
2021/06/27 03:25:53;;;;;;;9.03;5.86;;;;;;;23.01;64.46;98810.41;392849;104;1987984;-71
2021/06/27 03:26:59;;;;;;;13.14;5.60;;;;;;;22.98;64.23;98815.73;376611;105;1962021;-73
2021/06/27 03:28:22;;;;;;;8.87;5.28;;;;;;;23.01;63.87;98813.16;374664;105;1962089;-71
2021/06/27 03:29:35;;;;;;;8.42;5.22;;;;;;;23.18;63.14;98808.93;390211;106;1985992;-74
2021/06/27 03:30:41;;;;;;;9.93;5.22;;;;;;;23.12;63.19;98810.18;304914;110;2460980;-73
2021/06/27 03:31:47;;;;;;;9.34;5.61;;;;;;;23.15;63.03;98810.36;337708;111;1963045;-75
2021/06/27 03:32:52;;;;;;;8.44;4.79;;;;;;;23.18;62.88;98808.93;344596;109;1962025;-74
2021/06/27 03:33:58;;;;;;;9.47;5.26;;;;;;;23.18;62.55;98807.02;349178;109;1964038;-74
2021/06/27 03:35:17;;;;;;;12.77;7.17;;;;;;;23.31;62.56;98810.83;393710;104;1987020;-71
2021/06/27 03:36:22;;;;;;;10.42;5.13;;;;;;;23.24;62.47;98807.71;373451;107;1961887;-73
2021/06/27 03:37:34;;;;;;;9.09;5.01;;;;;;;23.37;62.04;98804.09;391535;103;2072889;-74
2021/06/27 03:38:56;;;;;;;8.04;4.68;;;;;;;23.28;61.77;98805.95;374816;106;1969052;-75
2021/06/27 03:40:13;;;;;;;7.62;4.76;;;;;;;23.29;61.64;98804.84;371587;108;1961989;-74
2021/06/27 03:41:35;;;;;;;6.70;4.02;;;;;;;23.42;61.29;98794.91;354818;104;2678014;-72
2021/06/27 03:42:37;;;;;;;9.42;4.42;;;;;;;23.33;61.18;98803.08;374550;105;1962047;-72
2021/06/27 03:43:42;;;;;;;10.79;5.19;;;;;;;23.35;61.03;98803.59;377194;105;1961998;-72
2021/06/27 03:44:55;;;;;;;11.69;5.47;;;;;;;23.49;61.16;98800.77;390514;104;2072041;-73
2021/06/27 03:46:00;;;;;;;8.38;4.52;;;;;;;23.40;60.96;98802.66;375723;107;1963814;-72
2021/06/27 03:47:07;;;;;;;6.61;3.92;;;;;;;23.41;60.92;98810.59;375843;107;1962079;-71
2021/06/27 03:48:13;;;;;;;8.84;4.67;;;;;;;23.42;60.77;98800.41;355452;107;1962060;-72
2021/06/27 03:49:18;;;;;;;12.55;5.64;;;;;;;23.41;60.54;98799.58;374751;107;1962034;-73
2021/06/27 03:50:34;;;;;;;8.64;4.22;;;;;;;23.53;60.54;98801.79;325651;106;2342855;-72
2021/06/27 03:51:41;;;;;;;9.61;5.43;;;;;;;23.42;60.70;98792.14;367589;108;1962031;-72
2021/06/27 03:52:54;;;;;;;9.88;5.22;;;;;;;23.57;60.68;98793.70;383279;104;2892929;-73
2021/06/27 03:53:59;;;;;;;11.13;5.61;;;;;;;23.47;60.53;98795.59;345582;107;1960863;-75
2021/06/27 03:55:23;;;;;;;8.55;4.78;;;;;;;23.50;60.59;98794.16;371528;107;1962067;-74
2021/06/27 03:56:36;;;;;;;12.06;4.79;;;;;;;23.62;60.21;98797.14;382211;106;1961965;-72
2021/06/27 03:57:41;;;;;;;10.38;4.81;;;;;;;23.54;60.46;98799.84;376139;107;1970082;-73
2021/06/27 03:58:48;;;;;;;7.43;4.44;;;;;;;23.57;60.35;98801.97;372445;107;1962049;-73
2021/06/27 03:59:53;;;;;;;12.16;6.06;;;;;;;23.60;60.23;98801.34;372256;107;1961947;-73
2021/06/27 04:01:05;;;;;;;16.24;7.98;;;;;;;23.70;60.15;98799.14;392697;104;1986903;-73
2021/06/27 04:02:11;;;;;;;11.03;4.98;;;;;;;23.62;60.11;98802.66;364386;107;2894873;-75
2021/06/27 04:03:23;;;;;;;7.40;4.51;;;;;;;23.74;60.02;98790.27;396146;104;1987034;-74
2021/06/27 04:04:28;;;;;;;11.57;4.87;;;;;;;23.65;59.97;98798.45;376489;105;1962086;-74
2021/06/27 04:05:52;;;;;;;10.59;5.24;;;;;;;23.68;59.93;98793.15;369495;109;1962065;-74
2021/06/27 04:06:57;;;;;;;7.61;4.54;;;;;;;23.74;59.70;98795.78;366347;106;2873072;-72
2021/06/27 04:08:11;;;;;;;7.94;4.65;;;;;;;23.87;59.59;98795.73;384966;106;1986982;-74
2021/06/27 04:09:17;;;;;;;9.42;5.05;;;;;;;23.80;59.33;98789.03;362783;109;1961968;-73
2021/06/27 04:10:30;;;;;;;6.93;4.17;;;;;;;23.94;59.30;98786.19;359613;104;2576999;-74
2021/06/27 04:11:35;;;;;;;7.22;4.14;;;;;;;23.85;59.25;98788.91;361003;107;1964049;-74
2021/06/27 04:12:59;;;;;;;10.56;4.59;;;;;;;23.86;59.13;98794.08;376300;106;1961990;-74
2021/06/27 04:14:05;;;;;;;7.31;4.13;;;;;;;23.87;58.51;98783.89;364451;106;2877078;-75
2021/06/27 04:15:11;;;;;;;9.00;4.71;;;;;;;23.87;58.67;98787.45;361219;107;2920891;-74
2021/06/27 04:16:23;;;;;;;7.76;4.11;;;;;;;24.00;58.63;98777.48;392984;104;2072034;-73
2021/06/27 04:17:29;;;;;;;8.23;4.20;;;;;;;23.91;58.55;98779.36;380268;105;1968995;-75
2021/06/27 04:18:42;;;;;;;7.69;4.41;;;;;;;24.06;58.33;98772.63;384320;106;1985904;-74
2021/06/27 04:19:48;;;;;;;7.23;4.41;;;;;;;23.95;58.28;98783.13;365870;107;1961915;-74
2021/06/27 04:21:11;;;;;;;16.16;5.01;;;;;;;23.95;58.41;98785.05;365304;108;1962091;-73
2021/06/27 04:22:24;;;;;;;13.14;4.75;;;;;;;24.03;58.50;98784.30;356073;104;2124994;-74
2021/06/27 04:23:32;;;;;;;11.49;5.65;;;;;;;23.93;58.45;98787.33;368841;107;1968984;-76
2021/06/27 04:24:45;;;;;;;11.02;4.55;;;;;;;24.03;58.39;98789.82;340915;104;2454031;-74
2021/06/27 04:25:50;;;;;;;7.62;4.19;;;;;;;23.91;58.46;98785.68;343923;106;2001996;-75
2021/06/27 04:27:14;;;;;;;7.99;4.33;;;;;;;23.92;58.36;98792.00;374628;106;1961976;-74
2021/06/27 04:28:27;;;;;;;10.07;4.51;;;;;;;23.97;58.19;98777.27;385101;104;1961894;-73
2021/06/27 04:29:32;;;;;;;8.39;4.19;;;;;;;23.93;58.20;98795.60;369970;105;1970057;-74
2021/06/27 04:30:45;;;;;;;7.02;3.96;;;;;;;24.05;58.16;98782.02;385622;106;1962030;-75
2021/06/27 04:31:53;;;;;;;7.23;4.25;;;;;;;23.95;58.18;98783.13;336430;109;1984027;-73
2021/06/27 04:33:17;;;;;;;10.43;4.08;;;;;;;23.96;58.14;98778.42;363915;109;1965071;-74
2021/06/27 04:34:29;;;;;;;8.51;4.48;;;;;;;24.10;58.15;98782.70;396531;104;1986032;-74
2021/06/27 04:35:37;;;;;;;7.74;4.16;;;;;;;23.99;57.97;98783.30;378589;105;1962031;-74
2021/06/27 04:36:49;;;;;;;7.69;4.22;;;;;;;24.10;58.11;98784.64;331067;109;2205019;-73
2021/06/27 04:37:55;;;;;;;6.88;4.09;;;;;;;23.98;57.85;98787.20;351539;112;1960758;-74
2021/06/27 04:39:19;;;;;;;7.17;3.95;;;;;;;23.96;57.95;98789.45;351415;113;1962998;-74
2021/06/27 04:40:25;;;;;;;7.56;4.68;;;;;;;23.96;58.06;98789.45;308595;114;2144028;-74
2021/06/27 04:41:37;;;;;;;9.31;4.83;;;;;;;24.03;58.07;98787.06;394408;103;1987007;-75
2021/06/27 04:42:43;;;;;;;8.09;5.39;;;;;;;23.89;58.53;98787.93;369661;107;1961856;-75
2021/06/27 04:43:56;;;;;;;9.32;5.63;;;;;;;23.96;59.16;98784.74;380015;106;2072177;-74
2021/06/27 04:45:03;;;;;;;11.64;6.33;;;;;;;23.84;59.22;98784.50;324352;109;2699118;-77
2021/06/27 04:46:28;;;;;;;9.38;5.74;;;;;;;23.82;59.36;98786.78;346800;109;1963987;-75
2021/06/27 04:47:35;;;;;;;9.46;6.13;;;;;;;23.80;59.79;98787.08;358379;109;1963882;-75
2021/06/27 04:48:47;;;;;;;9.03;5.85;;;;;;;23.90;59.82;98788.77;384638;106;1986023;-74
2021/06/27 04:49:54;;;;;;;9.35;5.83;;;;;;;23.73;60.00;98781.19;321458;109;2771996;-75
2021/06/27 04:51:06;;;;;;;10.19;6.41;;;;;;;23.83;60.07;98785.64;393362;104;1964976;-71
2021/06/27 04:52:11;;;;;;;10.22;6.03;;;;;;;23.70;60.55;98790.88;373904;107;1962857;-73
2021/06/27 04:53:35;;;;;;;10.28;6.14;;;;;;;23.66;60.60;98794.59;348081;105;1990965;-72
2021/06/27 04:54:48;;;;;;;9.44;6.37;;;;;;;23.75;60.35;98786.40;391678;103;2071872;-75
2021/06/27 04:55:58;;;;;;;11.58;6.16;;;;;;;23.63;60.37;98793.27;375251;105;1960807;-73
2021/06/27 04:57:08;;;;;;;9.07;6.30;;;;;;;23.72;60.67;98795.30;395162;104;1985998;-74
2021/06/27 04:58:14;;;;;;;11.79;5.79;;;;;;;23.61;60.75;98798.28;376628;107;1961965;-74
2021/06/27 04:59:37;;;;;;;10.54;6.88;;;;;;;23.65;60.86;98801.22;368062;109;1961892;-75
2021/06/27 05:00:49;;;;;;;11.11;7.11;;;;;;;23.81;60.93;98796.16;393917;104;1986026;-75
2021/06/27 05:01:57;;;;;;;9.27;6.37;;;;;;;23.74;60.81;98799.38;376229;106;1961922;-75
2021/06/27 05:03:05;;;;;;;10.04;6.41;;;;;;;23.74;60.73;98804.89;338800;106;2661008;-75
2021/06/27 05:04:37;;;;;;;10.57;6.79;;;;;;;23.91;60.87;98804.98;412896;99;1986041;-74
2021/06/27 05:05:43;;;;;;;11.51;7.24;;;;;;;23.86;60.81;98805.12;392082;102;1960836;-74
2021/06/27 05:07:15;;;;;;;15.87;7.18;;;;;;;24.02;60.56;98805.53;391424;103;1985861;-75
2021/06/27 05:08:20;;;;;;;13.44;6.97;;;;;;;23.97;60.46;98813.13;368282;105;1960946;-74
2021/06/27 05:09:44;;;;;;;10.96;6.68;;;;;;;24.01;60.33;98806.68;380908;105;1960688;-75
2021/06/27 05:11:16;;;;;;;9.53;6.23;;;;;;;24.19;58.80;98812.30;369906;103;1999872;-75
2021/06/27 05:12:22;;;;;;;12.03;7.00;;;;;;;24.07;59.54;98819.20;355393;105;1963059;-74
2021/06/27 05:13:27;;;;;;;9.01;6.09;;;;;;;24.11;59.53;98819.41;372707;106;1962990;-75
2021/06/27 05:14:39;;;;;;;10.47;5.66;;;;;;;24.27;59.48;98828.09;394131;103;1985990;-75
2021/06/27 05:15:44;;;;;;;11.76;6.12;;;;;;;24.19;59.13;98829.67;375397;105;1961017;-75
2021/06/27 05:16:50;;;;;;;10.26;5.57;;;;;;;24.23;59.14;98836.17;374088;105;1961868;-73
2021/06/27 05:17:56;;;;;;;10.73;5.68;;;;;;;24.24;58.94;98837.81;368332;107;1961988;-74
2021/06/27 05:19:09;;;;;;;10.99;6.63;;;;;;;24.38;58.97;98834.95;351648;104;2592998;-73
2021/06/27 05:20:21;;;;;;;10.90;6.74;;;;;;;24.42;58.88;98827.65;391201;104;2071997;-75
2021/06/27 05:21:45;;;;;;;10.41;6.29;;;;;;;24.28;58.73;98833.27;344291;105;2584006;-75
2021/06/27 05:22:57;;;;;;;10.29;6.81;;;;;;;24.35;59.08;98839.16;375615;108;2071931;-74
2021/06/27 05:24:03;;;;;;;10.96;7.01;;;;;;;24.26;59.19;98840.24;362212;110;1962983;-74
2021/06/27 05:25:26;;;;;;;10.36;6.52;;;;;;;24.28;59.21;98843.51;315009;110;2197029;-73
2021/06/27 05:26:39;;;;;;;12.37;6.36;;;;;;;24.41;58.95;98841.79;400263;101;2071960;-74